Weather at Agrinion Air Base [CLOSED]

Public forecast

Using degrees Celsius for public forecast. Weather courtesy of forecast.io.

Closest aviation weather report (METAR) to Agrinion Air Base

Closest report is Patras Araxos Agamemnon Airport, 27.3 nm (50.6 km) S.

2024/07/13 21:50 (retrieved 11 minutes ago)

LGRX 132150Z 00000KT CAVOK 26/22 Q1010 BLU

Closest aviation forecast (TAF) to Agrinion Air Base

Closest forecast is Aktion National Airport, 33.6 nm (62.2 km) NW.

2024/07/13 18:13 (retrieved 4 hours ago)

TAF LGPZ 131700Z 1318/1418 27012KT 9999 FEW030 BECMG 1320/1322 VRB05KT BECMG 1407/1409 27012KT